Ontonagon, Michigan
Current Conditions -  °F | °C
As of 3:53 AM on Saturday 25 Oct 2014 (Local Time) from KCMX Reporting Station
Clear Clear  
Wind Chill: 12°   Ceiling: Unl
Heat Index: 12°   Visibility: 10mi
Dew Point:   Wind: 20mph
Humidity: 62%   Direction: 290°WNW
Pressure: 29.67"   Gusts: 32mph
Location:  46.87°N, 89.31°W
Report Text: KCMX 250753Z AUTO 29017G28KT 10SM CLR 12/05 A2967 RMK AO2 PK WND 27033/0712 SLP048 T01220050
Loading
Personal Weather Stations






























Interactive Weather Map
Tropical Storm Tracking
New forecast layout! Learn more

10-Day Weather Forecast

Advertisements
Track Severe Weather on mobile